createdAt,value
2023-06-18T00:10:10.341Z,66.54
2023-06-18T00:25:28.131Z,67.21
2023-06-18T00:40:30.730Z,67.55
2023-06-18T00:55:51.448Z,67.84
2023-06-18T01:11:03.825Z,68.37
2023-06-18T01:26:06.429Z,68.55
2023-06-18T01:41:28.542Z,68.60
2023-06-18T02:12:04.580Z,69.57
2023-06-18T02:27:21.791Z,70.25
2023-06-18T02:53:38.437Z,70.12
2023-06-18T03:08:55.732Z,70.69
2023-06-18T03:23:58.380Z,70.76
2023-06-18T03:39:00.717Z,71.59
2023-06-18T03:54:03.530Z,71.96
2023-06-18T04:09:05.970Z,71.86
2023-06-18T04:24:08.364Z,72.30
2023-06-18T04:39:11.902Z,72.20
2023-06-18T04:54:14.565Z,72.25
2023-06-18T05:09:17.343Z,71.95
2023-06-18T05:24:20.636Z,72.13
2023-06-18T05:39:38.111Z,71.95
2023-06-18T05:54:41.057Z,71.69
2023-06-18T06:09:43.786Z,71.41
2023-06-18T06:24:47.433Z,70.67
2023-06-18T06:39:50.108Z,69.24
2023-06-18T06:54:52.683Z,67.45
2023-06-18T07:09:56.280Z,65.56
2023-06-18T07:24:59.432Z,64.22
2023-06-18T07:40:02.418Z,62.32
2023-06-18T07:55:06.566Z,60.77
2023-06-18T08:10:09.654Z,59.00
2023-06-18T08:25:27.118Z,57.99
2023-06-18T08:40:38.241Z,56.46
2023-06-18T08:55:43.041Z,55.32
2023-06-18T09:10:46.171Z,59.15
2023-06-18T09:25:54.630Z,61.81
2023-06-18T09:41:15.958Z,61.86
2023-06-18T09:56:19.949Z,62.85
2023-06-18T10:11:23.831Z,61.43
2023-06-18T10:26:29.143Z,64.41
2023-06-18T10:41:32.134Z,66.96
2023-06-18T10:56:37.584Z,68.46
2023-06-18T11:11:52.702Z,68.44
2023-06-18T11:26:56.603Z,66.25
2023-06-18T11:42:21.063Z,65.55
2023-06-18T11:57:25.692Z,64.14
2023-06-18T12:13:11.676Z,61.98
2023-06-18T12:28:14.722Z,60.35
2023-06-18T12:43:20.014Z,58.01
2023-06-18T12:58:29.727Z,55.83
2023-06-18T13:13:33.470Z,54.15
2023-06-18T13:28:36.258Z,52.17
2023-06-18T13:43:40.607Z,50.88
2023-06-18T13:58:43.518Z,51.05
2023-06-18T14:13:46.695Z,49.39
2023-06-18T14:29:04.401Z,49.16
2023-06-18T14:44:09.288Z,50.46
2023-06-18T14:59:11.749Z,49.30
2023-06-18T15:14:31.063Z,48.27
2023-06-18T15:29:34.727Z,48.19
2023-06-18T15:44:38.501Z,48.88
2023-06-18T15:59:41.953Z,49.65
2023-06-18T16:14:45.608Z,50.23
2023-06-18T16:30:04.458Z,50.38
2023-06-18T16:45:08.129Z,50.05
2023-06-18T17:00:11.509Z,49.92
2023-06-18T17:15:14.520Z,50.22
2023-06-18T17:30:17.924Z,53.14
2023-06-18T17:45:23.062Z,55.44
2023-06-18T18:00:40.669Z,56.29
2023-06-18T18:16:01.730Z,56.59
2023-06-18T18:31:05.396Z,56.53
2023-06-18T18:46:08.662Z,57.61
2023-06-18T19:01:13.939Z,58.35
2023-06-18T19:16:17.843Z,59.19
2023-06-18T19:31:27.774Z,60.30
2023-06-18T19:46:46.499Z,61.05
2023-06-18T20:02:04.318Z,62.69
2023-06-18T20:17:07.399Z,63.31
2023-06-18T20:32:10.252Z,63.83
2023-06-18T20:47:12.943Z,64.82
2023-06-18T21:02:16.574Z,65.44
2023-06-18T21:17:19.584Z,66.18
2023-06-18T21:32:22.413Z,66.18
2023-06-18T21:47:25.841Z,66.34
2023-06-18T22:02:28.849Z,67.10
2023-06-18T22:17:31.696Z,67.13
2023-06-18T22:32:34.525Z,66.95
2023-06-18T22:47:37.361Z,67.05
2023-06-18T23:02:40.561Z,67.85
2023-06-18T23:17:43.879Z,68.35
2023-06-18T23:32:48.518Z,68.41
2023-06-18T23:47:51.131Z,68.63
